createdAt,value
2022-12-09T00:02:00.250Z,5.74
2022-12-09T00:04:26.955Z,5.73
2022-12-09T00:06:53.540Z,5.73
2022-12-09T00:09:19.928Z,5.71
2022-12-09T00:11:46.411Z,5.68
2022-12-09T00:14:13.025Z,5.69
2022-12-09T00:16:40.013Z,5.68
2022-12-09T00:19:07.418Z,5.67
2022-12-09T00:21:34.686Z,5.67
2022-12-09T00:24:06.371Z,5.65
2022-12-09T00:26:34.072Z,5.64
2022-12-09T00:29:01.262Z,5.62
2022-12-09T00:31:32.401Z,5.63
2022-12-09T00:34:05.005Z,5.63
2022-12-09T00:36:31.938Z,5.62
2022-12-09T00:38:59.178Z,5.64
2022-12-09T00:41:26.975Z,5.64
2022-12-09T00:43:54.295Z,5.65
2022-12-09T00:46:20.771Z,5.66
2022-12-09T00:48:47.587Z,5.67
2022-12-09T00:51:17.538Z,5.67
2022-12-09T00:53:44.910Z,5.69
2022-12-09T00:56:11.520Z,5.69
2022-12-09T00:58:37.906Z,5.70
2022-12-09T01:01:04.888Z,5.71
2022-12-09T01:03:31.467Z,5.71
2022-12-09T01:05:58.377Z,5.71
2022-12-09T01:08:25.100Z,5.70
2022-12-09T01:10:51.648Z,5.68
2022-12-09T01:13:18.061Z,5.65
2022-12-09T01:15:44.765Z,5.59
2022-12-09T01:18:13.707Z,5.55
2022-12-09T01:20:40.429Z,5.47
2022-12-09T01:23:07.097Z,5.42
2022-12-09T01:25:34.136Z,5.36
2022-12-09T01:28:00.977Z,5.31
2022-12-09T01:30:27.733Z,5.27
2022-12-09T01:32:54.110Z,5.22
2022-12-09T01:35:20.684Z,5.21
2022-12-09T01:37:47.461Z,5.19
2022-12-09T01:40:16.872Z,5.19
2022-12-09T01:42:43.530Z,5.19
2022-12-09T01:45:22.237Z,5.19
2022-12-09T01:47:54.271Z,5.20
2022-12-09T01:50:20.966Z,5.20
2022-12-09T01:52:49.265Z,5.21
2022-12-09T01:55:16.819Z,5.21
2022-12-09T01:57:45.098Z,5.21
2022-12-09T02:00:14.067Z,5.22
2022-12-09T02:02:43.706Z,5.22
2022-12-09T02:05:11.678Z,5.22
2022-12-09T02:07:38.485Z,5.22
2022-12-09T02:10:14.390Z,5.24
2022-12-09T02:12:53.017Z,5.25
2022-12-09T02:15:24.437Z,5.28
2022-12-09T02:17:55.321Z,5.28
2022-12-09T02:20:31.157Z,5.31
2022-12-09T02:23:36.123Z,5.32
2022-12-09T02:26:27.410Z,5.35
2022-12-09T02:29:11.976Z,5.36
2022-12-09T02:32:11.575Z,5.37
2022-12-09T02:34:45.682Z,5.38
2022-12-09T02:37:31.302Z,5.38
2022-12-09T02:40:03.861Z,5.40
2022-12-09T02:42:34.953Z,5.39
2022-12-09T02:45:03.962Z,5.41
2022-12-09T02:47:33.322Z,5.42
2022-12-09T02:50:05.974Z,5.43
2022-12-09T02:52:35.631Z,5.43
2022-12-09T02:55:07.175Z,5.43
2022-12-09T02:57:36.029Z,5.44
2022-12-09T03:00:06.473Z,5.43
2022-12-09T03:02:36.919Z,5.44
2022-12-09T03:05:16.828Z,5.45
2022-12-09T03:07:56.070Z,5.45
2022-12-09T03:10:28.951Z,5.45
2022-12-09T03:13:04.477Z,5.47
2022-12-09T03:15:35.440Z,5.46
2022-12-09T03:18:07.176Z,5.47
2022-12-09T03:20:38.155Z,5.48
2022-12-09T03:23:06.472Z,5.48
2022-12-09T03:25:38.407Z,5.48
2022-12-09T03:28:14.520Z,5.49
2022-12-09T03:30:45.407Z,5.50
2022-12-09T03:33:15.346Z,5.49
2022-12-09T03:35:46.301Z,5.50
2022-12-09T03:38:18.467Z,5.50
2022-12-09T03:40:50.216Z,5.50
2022-12-09T03:43:24.484Z,5.50
2022-12-09T03:45:54.686Z,5.50
2022-12-09T03:48:22.836Z,5.48
2022-12-09T03:51:00.522Z,5.49
2022-12-09T03:53:40.833Z,5.48
2022-12-09T03:56:18.747Z,5.47
2022-12-09T03:58:47.549Z,5.45
2022-12-09T04:01:15.271Z,5.46
2022-12-09T04:03:45.099Z,5.45
2022-12-09T04:06:11.597Z,5.43
2022-12-09T04:08:38.134Z,5.43
2022-12-09T04:11:04.711Z,5.42
2022-12-09T04:13:31.212Z,5.38
2022-12-09T04:15:57.633Z,5.35
2022-12-09T04:18:24.551Z,5.31
2022-12-09T04:20:51.147Z,5.25
2022-12-09T04:23:17.615Z,5.21
2022-12-09T04:25:43.970Z,5.17
2022-12-09T04:28:10.342Z,5.15
2022-12-09T04:30:36.854Z,5.12
2022-12-09T04:33:03.306Z,5.10
2022-12-09T04:35:29.890Z,5.08
2022-12-09T04:37:56.590Z,5.04
2022-12-09T04:40:24.070Z,5.00
2022-12-09T04:42:50.748Z,4.97
2022-12-09T04:45:17.264Z,4.94
2022-12-09T04:47:44.004Z,4.93
2022-12-09T04:50:11.513Z,4.89
2022-12-09T04:52:38.172Z,4.88
2022-12-09T04:55:05.189Z,4.84
2022-12-09T04:57:31.646Z,4.85
2022-12-09T04:59:58.043Z,4.83
2022-12-09T05:02:24.643Z,4.83
2022-12-09T05:04:51.516Z,4.85
2022-12-09T05:07:18.090Z,4.84
2022-12-09T05:09:45.176Z,4.83
2022-12-09T05:12:12.015Z,4.83
2022-12-09T05:14:38.452Z,4.82
2022-12-09T05:17:06.783Z,4.82
2022-12-09T05:19:33.898Z,4.81
2022-12-09T05:22:00.562Z,4.80
2022-12-09T05:24:27.245Z,4.76
2022-12-09T05:26:53.719Z,4.75
2022-12-09T05:29:23.087Z,4.73
2022-12-09T05:31:51.563Z,4.74
2022-12-09T05:34:18.367Z,4.74
2022-12-09T05:36:45.000Z,4.75
2022-12-09T05:39:11.623Z,4.77
2022-12-09T05:41:38.389Z,4.78
2022-12-09T05:44:05.146Z,4.80
2022-12-09T05:46:32.174Z,4.81
2022-12-09T05:48:58.779Z,4.86
2022-12-09T05:51:28.602Z,4.89
2022-12-09T05:53:56.709Z,4.90
2022-12-09T05:56:24.601Z,4.94
2022-12-09T05:58:52.397Z,4.96
2022-12-09T06:01:20.068Z,5.00
2022-12-09T06:03:48.280Z,5.02
2022-12-09T06:06:17.025Z,5.05
2022-12-09T06:08:45.176Z,5.08
2022-12-09T06:11:14.730Z,5.10
2022-12-09T06:13:41.521Z,5.13
2022-12-09T06:16:09.155Z,5.15
2022-12-09T06:18:36.922Z,5.18
2022-12-09T06:21:11.531Z,5.23
2022-12-09T06:23:41.437Z,5.25
2022-12-09T06:26:14.848Z,5.27
2022-12-09T06:28:41.637Z,5.31
2022-12-09T06:31:08.103Z,5.33
2022-12-09T06:33:54.204Z,5.34
2022-12-09T06:36:22.009Z,5.37
2022-12-09T06:38:48.473Z,5.38
2022-12-09T06:41:15.626Z,5.40
2022-12-09T06:43:42.599Z,5.41
2022-12-09T06:46:17.144Z,5.41
2022-12-09T06:48:44.638Z,5.42
2022-12-09T06:51:11.982Z,5.42
2022-12-09T06:53:38.564Z,5.44
2022-12-09T06:56:11.694Z,5.44
2022-12-09T06:58:39.788Z,5.44
2022-12-09T07:01:07.014Z,5.44
2022-12-09T07:03:34.012Z,5.44
2022-12-09T07:06:03.583Z,5.43
2022-12-09T07:08:30.227Z,5.44
2022-12-09T07:10:57.383Z,5.43
2022-12-09T07:13:25.370Z,5.42
2022-12-09T07:15:52.279Z,5.41
2022-12-09T07:18:19.213Z,5.38
2022-12-09T07:20:45.767Z,5.38
2022-12-09T07:23:13.748Z,5.37
2022-12-09T07:25:40.222Z,5.34
2022-12-09T07:28:06.753Z,5.33
2022-12-09T07:30:33.301Z,5.31
2022-12-09T07:32:59.969Z,5.27
2022-12-09T07:35:26.863Z,5.26
2022-12-09T07:37:55.288Z,5.24
2022-12-09T07:40:22.115Z,5.23
2022-12-09T07:42:48.904Z,5.22
2022-12-09T07:45:15.811Z,5.23
2022-12-09T07:47:42.504Z,5.21
2022-12-09T07:50:09.857Z,5.20
2022-12-09T07:52:36.467Z,5.20
2022-12-09T07:55:03.106Z,5.20
2022-12-09T07:57:34.132Z,5.21
2022-12-09T08:00:00.855Z,5.21
2022-12-09T08:02:27.622Z,5.21
2022-12-09T08:04:54.409Z,5.21
2022-12-09T08:07:21.078Z,5.22
2022-12-09T08:09:48.070Z,5.22
2022-12-09T08:12:14.610Z,5.22
2022-12-09T08:14:41.600Z,5.24
2022-12-09T08:17:08.122Z,5.24
2022-12-09T08:19:34.755Z,5.24
2022-12-09T08:22:01.635Z,5.25
2022-12-09T08:24:28.172Z,5.26
2022-12-09T08:26:55.011Z,5.25
2022-12-09T08:29:21.711Z,5.25
2022-12-09T08:31:49.073Z,5.26
2022-12-09T08:34:16.122Z,5.26
2022-12-09T08:36:43.341Z,5.27
2022-12-09T08:39:11.665Z,5.27
2022-12-09T08:41:39.865Z,5.29
2022-12-09T08:44:15.553Z,5.31
2022-12-09T08:46:45.504Z,5.31
2022-12-09T08:49:13.491Z,5.32
2022-12-09T08:51:40.515Z,5.32
2022-12-09T08:54:07.135Z,5.34
2022-12-09T08:56:34.377Z,5.35
2022-12-09T08:59:01.339Z,5.37
2022-12-09T09:01:32.961Z,5.38
2022-12-09T09:04:09.328Z,5.42
2022-12-09T09:06:38.599Z,5.44
2022-12-09T09:09:07.263Z,5.46
2022-12-09T09:11:34.864Z,5.46
2022-12-09T09:14:04.936Z,5.49
2022-12-09T09:16:32.120Z,5.51
2022-12-09T09:18:59.257Z,5.53
2022-12-09T09:21:26.965Z,5.55
2022-12-09T09:23:53.498Z,5.57
2022-12-09T09:26:24.634Z,5.59
2022-12-09T09:28:51.850Z,5.61
2022-12-09T09:31:21.606Z,5.63
2022-12-09T09:33:49.866Z,5.66
2022-12-09T09:36:20.762Z,5.69
2022-12-09T09:38:49.257Z,5.71
2022-12-09T09:41:36.313Z,5.75
2022-12-09T09:44:03.022Z,5.76
2022-12-09T09:46:44.128Z,5.80
2022-12-09T09:49:18.904Z,5.82
2022-12-09T09:51:46.815Z,5.84
2022-12-09T09:54:15.359Z,5.86
2022-12-09T09:56:56.598Z,5.88
2022-12-09T09:59:32.830Z,5.91
2022-12-09T10:02:09.646Z,5.93
2022-12-09T10:04:42.451Z,5.95
2022-12-09T10:07:19.988Z,5.98
2022-12-09T10:10:02.148Z,5.98
2022-12-09T10:13:11.041Z,6.02
2022-12-09T10:15:53.871Z,6.05
2022-12-09T10:18:27.887Z,6.09
2022-12-09T10:20:54.970Z,6.10
2022-12-09T10:23:23.428Z,6.11
2022-12-09T10:25:57.390Z,6.15
2022-12-09T10:28:29.928Z,6.15
2022-12-09T10:30:59.888Z,6.18
2022-12-09T10:33:34.348Z,6.20
2022-12-09T10:36:02.143Z,6.20
2022-12-09T10:38:30.463Z,6.22
2022-12-09T10:41:53.247Z,6.24
2022-12-09T10:44:22.500Z,6.26
2022-12-09T10:46:57.398Z,6.27
2022-12-09T10:49:25.378Z,6.29
2022-12-09T10:51:54.079Z,6.29
2022-12-09T10:54:40.282Z,6.31
2022-12-09T10:57:12.927Z,6.31
2022-12-09T10:59:42.476Z,6.31
2022-12-09T11:02:09.335Z,6.32
2022-12-09T11:04:42.772Z,6.33
2022-12-09T11:07:12.309Z,6.35
2022-12-09T11:09:42.799Z,6.35
2022-12-09T11:12:18.777Z,6.37
2022-12-09T11:14:52.714Z,6.38
2022-12-09T11:17:23.343Z,6.38
2022-12-09T11:19:53.286Z,6.40
2022-12-09T11:22:36.449Z,6.42
2022-12-09T11:25:27.236Z,6.45
2022-12-09T11:27:56.230Z,6.45
2022-12-09T11:31:19.865Z,6.44
2022-12-09T11:33:47.605Z,6.46
2022-12-09T11:36:26.491Z,6.47
2022-12-09T11:39:27.821Z,6.49
2022-12-09T11:42:18.971Z,6.53
2022-12-09T11:45:06.576Z,6.58
2022-12-09T11:50:25.073Z,6.70
2022-12-09T11:53:12.776Z,6.78
2022-12-09T11:55:49.834Z,6.85
2022-12-09T11:58:21.135Z,6.91
2022-12-09T12:01:26.616Z,6.96
2022-12-09T12:04:03.678Z,7.01
2022-12-09T12:06:43.515Z,7.04
2022-12-09T12:09:21.010Z,7.05
2022-12-09T12:12:02.650Z,7.06
2022-12-09T12:14:30.438Z,7.03
2022-12-09T12:17:16.655Z,7.00
2022-12-09T12:19:45.320Z,7.03
2022-12-09T12:22:30.280Z,7.00
2022-12-09T12:25:33.499Z,6.99
2022-12-09T12:28:32.565Z,6.98
2022-12-09T12:31:01.522Z,6.96
2022-12-09T12:34:07.965Z,6.95
2022-12-09T12:36:42.716Z,6.94
2022-12-09T12:39:37.254Z,6.94
2022-12-09T12:42:23.268Z,6.93
2022-12-09T12:45:21.950Z,6.90
2022-12-09T12:47:48.203Z,6.85
2022-12-09T12:50:22.920Z,6.83
2022-12-09T12:52:56.724Z,6.82
2022-12-09T12:55:46.600Z,6.84
2022-12-09T12:58:39.056Z,6.85
2022-12-09T13:01:24.243Z,6.87
2022-12-09T13:04:00.599Z,6.87
2022-12-09T13:06:40.820Z,6.89
2022-12-09T13:09:47.748Z,6.89
2022-12-09T13:12:19.474Z,6.90
2022-12-09T13:14:53.634Z,6.89
2022-12-09T13:17:25.316Z,6.90
2022-12-09T13:19:56.326Z,6.91
2022-12-09T13:22:42.149Z,6.91
2022-12-09T13:25:42.546Z,6.93
2022-12-09T13:28:18.043Z,6.95
2022-12-09T13:30:54.403Z,6.94
2022-12-09T13:33:41.125Z,6.95
2022-12-09T13:36:20.990Z,6.96
2022-12-09T13:38:47.974Z,6.94
2022-12-09T13:41:26.631Z,6.94
2022-12-09T13:44:17.834Z,6.94
2022-12-09T13:46:44.978Z,6.94
2022-12-09T13:49:20.881Z,6.94
2022-12-09T13:51:51.554Z,6.94
2022-12-09T13:54:27.873Z,6.93
2022-12-09T13:57:22.195Z,6.92
2022-12-09T13:59:52.369Z,6.90
2022-12-09T14:02:37.272Z,6.84
2022-12-09T14:05:12.110Z,6.79
2022-12-09T14:07:46.110Z,6.75
2022-12-09T14:10:34.982Z,6.72
2022-12-09T14:13:17.750Z,6.67
2022-12-09T14:15:45.152Z,6.63
2022-12-09T14:18:33.006Z,6.59
2022-12-09T14:21:17.484Z,6.55
2022-12-09T14:24:09.054Z,6.52
2022-12-09T14:26:36.740Z,6.48
2022-12-09T14:29:04.173Z,6.45
2022-12-09T14:31:44.507Z,6.43
2022-12-09T14:34:23.620Z,6.42
2022-12-09T14:37:01.090Z,6.40
2022-12-09T14:39:35.183Z,6.39
2022-12-09T14:42:08.408Z,6.37
2022-12-09T14:44:50.235Z,6.35
2022-12-09T14:47:22.670Z,6.33
2022-12-09T14:49:50.684Z,6.30
2022-12-09T14:52:25.131Z,6.28
2022-12-09T14:54:54.082Z,6.25
2022-12-09T14:57:24.430Z,6.22
2022-12-09T14:59:54.103Z,6.18
2022-12-09T15:02:23.855Z,6.14
2022-12-09T15:04:52.333Z,6.09
2022-12-09T15:07:27.207Z,6.05
2022-12-09T15:10:04.094Z,6.00
2022-12-09T15:12:34.963Z,5.94
2022-12-09T15:15:07.246Z,5.88
2022-12-09T15:17:50.396Z,5.83
2022-12-09T15:20:47.876Z,5.76
2022-12-09T15:23:20.495Z,5.69
2022-12-09T15:25:50.318Z,5.65
2022-12-09T15:28:25.951Z,5.60
2022-12-09T15:30:58.838Z,5.56
2022-12-09T15:33:26.338Z,5.51
2022-12-09T15:35:57.978Z,5.49
2022-12-09T15:38:41.038Z,5.46
2022-12-09T15:41:33.626Z,5.42
2022-12-09T15:44:06.359Z,5.39
2022-12-09T15:46:36.280Z,5.35
2022-12-09T15:49:04.239Z,5.30
2022-12-09T15:51:31.498Z,5.24
2022-12-09T15:54:01.362Z,5.19
2022-12-09T15:56:40.556Z,5.13
2022-12-09T15:59:13.580Z,5.09
2022-12-09T16:01:42.053Z,5.04
2022-12-09T16:04:09.426Z,5.00
2022-12-09T16:06:37.617Z,4.98
2022-12-09T16:09:13.645Z,4.96
2022-12-09T16:11:45.835Z,4.93
2022-12-09T16:14:13.023Z,4.92
2022-12-09T16:17:00.277Z,4.93
2022-12-09T16:19:41.754Z,4.92
2022-12-09T16:22:11.057Z,4.95
2022-12-09T16:27:39.665Z,4.96
2022-12-09T16:30:13.996Z,4.97
2022-12-09T16:32:44.329Z,4.96
2022-12-09T16:35:10.588Z,4.96
2022-12-09T16:37:42.328Z,4.98
2022-12-09T16:40:32.874Z,4.99
2022-12-09T16:43:17.477Z,5.00
2022-12-09T16:45:46.857Z,5.01
2022-12-09T16:48:13.603Z,5.03
2022-12-09T16:50:46.344Z,5.02
2022-12-09T16:53:18.281Z,5.03
2022-12-09T16:56:02.150Z,5.03
2022-12-09T16:58:38.419Z,5.03
2022-12-09T17:01:05.048Z,5.02
2022-12-09T17:03:38.120Z,5.02
2022-12-09T17:06:05.577Z,5.01
2022-12-09T17:08:32.088Z,5.00
2022-12-09T17:11:01.243Z,4.99
2022-12-09T17:13:28.258Z,4.96
2022-12-09T17:15:58.342Z,4.95
2022-12-09T17:18:26.120Z,4.93
2022-12-09T17:21:04.272Z,4.94
2022-12-09T17:23:36.118Z,4.92
2022-12-09T17:26:15.072Z,4.92
2022-12-09T17:28:42.041Z,4.95
2022-12-09T17:31:10.312Z,4.93
2022-12-09T17:33:36.955Z,4.92
2022-12-09T17:36:03.870Z,4.91
2022-12-09T17:38:30.308Z,4.91
2022-12-09T17:40:56.977Z,4.91
2022-12-09T17:43:23.350Z,4.92
2022-12-09T17:45:49.839Z,4.94
2022-12-09T17:48:16.187Z,4.95
2022-12-09T17:50:42.701Z,4.97
2022-12-09T17:53:09.199Z,4.97
2022-12-09T17:55:38.221Z,5.00
2022-12-09T17:58:04.653Z,5.00
2022-12-09T18:00:32.063Z,5.02
2022-12-09T18:02:58.404Z,5.02
2022-12-09T18:05:24.773Z,5.03
2022-12-09T18:07:51.292Z,5.03
2022-12-09T18:10:17.720Z,5.03
2022-12-09T18:12:44.102Z,5.03
2022-12-09T18:15:10.938Z,5.03
2022-12-09T18:17:37.296Z,5.02
2022-12-09T18:20:04.323Z,5.01
2022-12-09T18:22:30.800Z,5.01
2022-12-09T18:24:57.149Z,4.99
2022-12-09T18:27:23.553Z,4.96
2022-12-09T18:29:49.873Z,4.95
2022-12-09T18:32:16.217Z,4.92
2022-12-09T18:34:43.198Z,4.92
2022-12-09T18:37:09.684Z,4.91
2022-12-09T18:39:36.738Z,4.91
2022-12-09T18:42:03.593Z,4.89
2022-12-09T18:44:29.944Z,4.92
2022-12-09T18:46:56.278Z,4.93
2022-12-09T18:49:24.692Z,4.94
2022-12-09T18:51:52.632Z,4.96
2022-12-09T18:54:24.781Z,4.98
2022-12-09T18:56:51.544Z,4.97
2022-12-09T18:59:19.269Z,4.98
2022-12-09T19:01:46.947Z,4.97
2022-12-09T19:04:16.150Z,4.98
2022-12-09T19:06:45.089Z,4.98
2022-12-09T19:09:23.262Z,5.01
2022-12-09T19:11:51.240Z,5.02
2022-12-09T19:14:19.504Z,5.03
2022-12-09T19:16:46.921Z,5.05
2022-12-09T19:19:16.648Z,5.07
2022-12-09T19:21:44.169Z,5.06
2022-12-09T19:24:17.295Z,5.09
2022-12-09T19:26:44.164Z,5.07
2022-12-09T19:31:42.284Z,5.10
2022-12-09T19:34:13.542Z,5.11
2022-12-09T19:36:40.270Z,5.12
2022-12-09T19:39:08.397Z,5.12
2022-12-09T19:41:35.797Z,5.12
2022-12-09T19:44:04.573Z,5.13
2022-12-09T19:46:31.714Z,5.14
2022-12-09T19:48:58.645Z,5.15
2022-12-09T19:51:26.458Z,5.16
2022-12-09T19:53:54.801Z,5.16
2022-12-09T19:56:21.867Z,5.17
2022-12-09T19:58:49.006Z,5.16
2022-12-09T20:01:22.811Z,5.18
2022-12-09T20:04:25.496Z,5.18
2022-12-09T20:06:52.937Z,5.18
2022-12-09T20:09:24.160Z,5.17
2022-12-09T20:11:51.893Z,5.16
2022-12-09T20:14:18.924Z,5.14
2022-12-09T20:16:45.344Z,5.13
2022-12-09T20:19:11.748Z,5.13
2022-12-09T20:21:39.784Z,5.12
2022-12-09T20:24:06.861Z,5.11
2022-12-09T20:26:36.179Z,5.11
2022-12-09T20:29:07.843Z,5.11
2022-12-09T20:31:36.515Z,5.10
2022-12-09T20:34:06.429Z,5.10
2022-12-09T20:36:34.787Z,5.09
2022-12-09T20:39:05.054Z,5.09
2022-12-09T20:41:31.690Z,5.09
2022-12-09T20:43:59.717Z,5.09
2022-12-09T20:46:31.085Z,5.08
2022-12-09T20:48:58.704Z,5.07
2022-12-09T20:51:33.806Z,5.07
2022-12-09T20:54:00.824Z,5.06
2022-12-09T20:56:28.948Z,5.06
2022-12-09T20:58:56.321Z,5.05
2022-12-09T21:01:25.692Z,5.05
2022-12-09T21:03:53.473Z,5.04
2022-12-09T21:06:21.808Z,5.03
2022-12-09T21:08:48.671Z,5.02
2022-12-09T21:11:21.319Z,5.03
2022-12-09T21:13:50.044Z,5.03
2022-12-09T21:16:22.560Z,5.02
2022-12-09T21:18:50.651Z,5.02
2022-12-09T21:21:18.243Z,5.02
2022-12-09T21:23:44.773Z,5.04
2022-12-09T21:26:14.387Z,5.04
2022-12-09T21:28:42.270Z,5.04
2022-12-09T21:31:17.179Z,5.06
2022-12-09T21:33:45.144Z,5.07
2022-12-09T21:36:20.829Z,5.07
2022-12-09T21:38:47.228Z,5.11
2022-12-09T21:41:15.178Z,5.14
2022-12-09T21:43:42.253Z,5.13
2022-12-09T21:46:11.790Z,5.11
2022-12-09T21:48:39.138Z,5.07
2022-12-09T21:51:05.967Z,5.05
2022-12-09T21:53:33.119Z,5.04
2022-12-09T21:56:15.615Z,5.04
2022-12-09T21:58:43.653Z,5.02
2022-12-09T22:01:15.986Z,5.02
2022-12-09T22:03:43.110Z,5.00
2022-12-09T22:08:38.692Z,4.97
2022-12-09T22:11:14.685Z,4.97
2022-12-09T22:13:41.537Z,4.96
2022-12-09T22:16:13.570Z,4.96
2022-12-09T22:18:40.437Z,4.96
2022-12-09T22:21:26.717Z,4.96
2022-12-09T22:23:55.513Z,4.95
2022-12-09T22:26:22.982Z,4.94
2022-12-09T22:28:50.048Z,4.94
2022-12-09T22:31:22.710Z,4.94
2022-12-09T22:33:50.565Z,4.94
2022-12-09T22:36:18.234Z,4.93
2022-12-09T22:38:45.366Z,4.92
2022-12-09T22:41:14.508Z,4.92
2022-12-09T22:43:41.650Z,4.90
2022-12-09T22:46:19.089Z,4.91
2022-12-09T22:48:45.890Z,4.89
2022-12-09T22:51:15.773Z,4.89
2022-12-09T22:53:42.546Z,4.88
2022-12-09T22:56:10.632Z,4.87
2022-12-09T22:58:37.490Z,4.87
2022-12-09T23:01:12.124Z,4.87
2022-12-09T23:03:39.178Z,4.86
2022-12-09T23:06:06.725Z,4.83
2022-12-09T23:08:33.787Z,4.81
2022-12-09T23:11:06.714Z,4.80
2022-12-09T23:13:40.482Z,4.76
2022-12-09T23:16:09.113Z,4.72
2022-12-09T23:18:36.241Z,4.69
2022-12-09T23:21:04.703Z,4.67
2022-12-09T23:23:31.368Z,4.65
2022-12-09T23:26:06.302Z,4.61
2022-12-09T23:28:37.191Z,4.59
2022-12-09T23:31:05.013Z,4.52
2022-12-09T23:33:33.666Z,4.46
2022-12-09T23:36:08.321Z,4.37
2022-12-09T23:38:35.118Z,4.29
2022-12-09T23:41:02.080Z,4.19
2022-12-09T23:43:32.935Z,4.10
2022-12-09T23:46:04.016Z,4.00
2022-12-09T23:48:30.796Z,3.90
2022-12-09T23:50:57.674Z,3.79
2022-12-09T23:53:24.093Z,3.69
2022-12-09T23:55:51.086Z,3.58
2022-12-09T23:58:17.470Z,3.48
